• Join FlightAware (Why Join?)
  • Login
  • US Flag 
03:39AM EDT


 

Airport Tracker/Info


-or-


 

Live Flight TrackerFlight Track Log ✈ GGN7280 ✈ 01-Jul-2013 ✈ CYYZ - KALB

Flight Track Log - Related Links

Times and Time Zones

All times are in EDT time to prevent confusion due to time zone crossing. See the GGN7280 flight status page for this flight to view local times or setup timezone preferences in your user account.

Time Position Orientation Groundspeed Altitude Reporting Facility
EDT Latitude Longitude Course Direction KTS MPH feet Rate Location/Type
09:28AM 43.6500 -79.6167 55° Northeast 20 23 500  Level Toronto Center
09:29AM 43.6667 -79.5833 55° Northeast 80 92 700 720 Climbing Toronto Center
09:30AM 43.6667 -79.5333 90° East 170 196 2,000 1,140 Climbing Toronto Center
09:31AM 43.6333 -79.4667 125° Southeast 190 219 3,000 1,380 Climbing Toronto Center
09:32AM 43.6167 -79.4000 109° East 190 219 4,800 1,620 Climbing Toronto Center
09:33AM 43.5833 -79.3500 133° Southeast 190 219 6,300 1,380 Climbing Toronto Center
09:34AM 43.5500 -79.2833 125° Southeast 190 219 7,600 840 Climbing Toronto Center
09:35AM 43.5333 -79.2167 109° East 210 242 8,000 180 Climbing Toronto Center
09:36AM 43.5000 -79.1333 119° Southeast 240 276 8,000 600 Level Toronto Center
09:37AM 43.4833 -79.0667 109° East 240 276 9,200 1,200 Climbing Toronto Center
09:38AM 43.4667 -78.9667 103° East 230 265 10,400 1,200 Climbing Toronto Center
09:39AM 43.4667 -78.8667 90° East 230 265 11,600 1,200 Climbing Toronto Center
09:40AM 43.4500 -78.7833 105° East 220 253 12,900 1,200 Climbing Toronto Center
09:41AM 43.4500 -78.6833 90° East 230 265 14,000 1,020 Climbing Toronto Center
09:42AM 43.4333 -78.6167 109° East 240 276 15,000 1,200 Climbing Toronto Center
09:43AM 43.4167 -78.5167 103° East 250 288 16,400 1,440 Climbing Toronto Center
09:44AM 43.4000 -78.4333 105° East 240 276 17,900 1,440 Climbing Toronto Center
09:45AM 43.4058 -78.3631 83° East 228 262 19,400 1,260 Climbing Cleveland Center
09:46AM 43.3939 -78.2806 101° East 222 255 20,600 960 Climbing Cleveland Center
09:47AM 43.3861 -78.2008 98° East 217 250 21,400 840 Climbing Cleveland Center
09:48AM 43.3739 -78.1214 102° East 217 250 22,300 720 Climbing Cleveland Center
09:49AM 43.3661 -78.0417 98° East 217 250 22,900 300 Climbing Cleveland Center
09:50AM 43.3536 -77.9536 101° East 222 255 23,000  Climbing Cleveland Center
09:51AM 43.3389 -77.8600 102° East 234 269 22,900  Descending Cleveland Center
09:52AM 43.3283 -77.7636 99° East 245 282 23,000  Climbing Cleveland Center
09:53AM 43.3181 -77.6842 100° East 250 288 23,000  Level Cleveland Center
09:54AM 43.3028 -77.5792 101° East 259 298 23,000  Level Cleveland Center
09:55AM 43.2897 -77.4772 100° East 259 298 23,000  Level Cleveland Center
09:56AM 43.2789 -77.3808 99° East 259 298 23,000  Level Cleveland Center
09:57AM 43.2697 -77.2842 97° East 259 298 23,000  Level Cleveland Center
09:58AM 43.2547 -77.1939 103° East 259 298 23,100  Climbing Cleveland Center
10:00AM 43.2264 -76.9944 101° East 241 277 23,000  Descending Boston Center
10:01AM 43.2000 -76.8667 106° East 260 299 23,200  Climbing Toronto Center
10:02AM 43.2000 -76.7667 90° East 270 311 23,000 -60 Descending Toronto Center
10:03AM 43.1833 -76.6833 105° East 270 311 23,100  Climbing Toronto Center
10:04AM 43.1500 -76.5667 111° Southeast 270 311 23,000 -60 Descending Toronto Center
10:05AM 43.1500 -76.4833 90° East 270 311 23,000  Level Toronto Center
10:06AM 43.1333 -76.3667 101° East 270 311 23,000  Level Toronto Center
10:07AM 43.1167 -76.2833 105° East 280 322 23,000 -300 Level Toronto Center
10:08AM 43.1167 -76.1667 90° East 280 322 22,500 -660 Descending Toronto Center
10:09AM 43.0992 -76.0689 104° East 287 330 21,700 -900 Descending Boston Center
10:10AM 43.0817 -75.9597 102° East 287 330 20,600 -1,440 Descending Boston Center
10:11AM 43.0683 -75.8508 99° East 292 336 18,900 -1,800 Descending Boston Center
10:12AM 43.0506 -75.7447 103° East 292 336 17,000 -2,220 Descending Boston Center
10:13AM 43.0350 -75.6389 101° East 287 330 14,500 -2,040 Descending Boston Center
10:14AM 43.0225 -75.5586 102° East 282 325 13,000 -1,140 Descending Boston Center
10:16AM 42.9908 -75.3442 101° East 276 318 11,100 -660 Descending Boston Center
10:17AM 42.9786 -75.2469 100° East 271 312 11,100 -60 Level Boston Center
10:18AM 42.9619 -75.1553 104° East 259 298 11,000 -60 Descending Boston Center
10:19AM 42.9475 -75.0639 102° East 254 292 11,000  Level Boston Center
10:20AM 42.9367 -74.9869 101° East 232 267 11,000  Level Boston Center
10:21AM 42.9261 -74.9042 100° East 219 252 11,000  Level Boston Center
10:22AM 42.9092 -74.8100 104° East 219 252 11,000  Level Boston Center
10:23AM 42.8964 -74.7217 101° East 236 272 11,000  Level Boston Center
10:24AM 42.8817 -74.6333 103° East 242 278 11,000  Level Boston Center
10:25AM 42.8686 -74.5422 101° East 242 278 11,000 -300 Level Boston Center
10:26AM 42.8642 -74.4483 94° East 242 278 10,500 -960 Descending Boston Center
10:27AM 42.8742 -74.3525 82° East 247 284 9,100 -1,680 Descending Boston Center
10:28AM 42.8881 -74.2567 79° East 258 297 7,200 -1,920 Descending Boston Center
10:29AM 42.9042 -74.1633 77° East 258 297 5,300 -1,800 Descending Boston Center
10:30AM 42.9181 -74.0731 78° East 251 289 3,700 -1,200 Descending Boston Center
10:31AM 42.9317 -73.9911 77° East 234 269 3,000 -600 Descending Boston Center
10:32AM 42.9264 -73.9286 97° East 178 205 2,500 -300 Descending Boston Center
10:33AM 42.9167 -73.8633 101° East 166 191 2,500 -180 Level Boston Center
10:34AM 42.8900 -73.8231 132° Southeast 153 176 2,200 -240 Descending Boston Center
10:35AM 42.8614 -73.7828 134° Southeast 148 170 2,100 7,860 Descending Boston Center
10:36AM 42.8306 -73.7394 134° Southeast 148 170 18,000 7,860 Climbing Boston Center
10:37AM 42.8000 -73.6964 134° Southeast 148 170 18,000  Level Boston Center
10:39AM 42.7491 -73.8020 237° Southwest  Level Estimated
10:46AM 42.7491 -73.8020 304° West  Level Estimated
10:47AM 42.7491 -73.8020 304° West  Level Estimated